الصفحة الرئيسية
METAR-TAF:

METAR-TAF

مطار :

Nakhon Ratchasima, تايلاند

دائرة عرض: 14-56-58N, خط طول: 102-18-45E, ارتفاع: 233 متر

مراقبة الطقس الحالي

تاريخ ووقت الإصدار 11ساعات و 43 دقيقة قبل الساعة 11:00UTC
ريح 13 عقدة من الجنوب الشرقي, الاتجاه يتراوح بين الشرق و الجنوب
درجة الحرارة 27°درجة مئوية
الرطوبة 84%
ضغط 1004 hPa
الرؤية: 9000 متر
غيوم قليلة على ارتفاع 2000 قدم, مزنة ركامية.
غيوم مفككة على ارتفاع 2500 قدم
عاصفة رعدية, مطر خفيف

METAR: VTUQ 021100Z 14013KT 100V190 9000 -TSRA FEW020CB BKN025 27/24 Q1004 NOSIG

زمن: 05:43 (22:43 UTC)

توقعات

تاريخ ووقت الإصدار 5ساعات و 43 دقيقة قبل الساعة 17:00UTC
التوقعات صالحة من02 الساعة 18 UTC إلى 03 الساعة 18 UTC
ريح 8 عقدة من الجنوب الغربي
الرؤية 10 كم أو أكثر
غيوم متفرقة على ارتفاع 3000 قدم
مؤقت
من 03 الساعة 07 UTC إلى 03 الساعة 11 UTC
ريح 15 عقدةمن اتجاهات متغيرة
الرؤية: 4500 متر
غيوم قليلة على ارتفاع 1800 قدم, مزنة ركامية.
غيوم مفككة على ارتفاع 2500 قدم
عاصفة رعدية, مطر

TAF: VTUQ 021700Z 0218/0318 23008KT 9999 SCT030 TEMPO 0307/0311 VRB15KT 4500 TSRA FEW018CB BKN025

أرصاد الطقس والتوقعات من أكثر من 4000 مطار (تقارير الطقس للمطار METAR والتنبؤ بالطقس بالمطارTAF).

المحطات المتاحة هي النقط الصفراء والحمراء على الخريطة.

حرك المؤشر فوق النقطة لمعرفة اسم المحطة.

ثم انقر لمعرفة أرصاد وتوقعات الطقس.

لتغيير الخارطة: اضغط على الأزرار الخضراء مع رمز الصليب الأسود للتكبير. على الزر الأخضر مع شرطة للتصغير، أو على الأسهم الخضراء للخرائط المجاورة.


METAR-TAF: